createdAt,value
2022-09-10T00:01:37.162Z,100359.09
2022-09-10T00:04:13.089Z,100347.84
2022-09-10T00:06:42.256Z,100355.44
2022-09-10T00:09:12.330Z,100352.94
2022-09-10T00:11:41.740Z,100361.44
2022-09-10T00:14:17.281Z,100360.09
2022-09-10T00:16:45.825Z,100351.31
2022-09-10T00:19:15.079Z,100357.06
2022-09-10T00:21:44.510Z,100351.75
2022-09-10T00:24:15.862Z,100338.88
2022-09-10T00:26:43.998Z,100350.50
2022-09-10T00:29:16.983Z,100346.66
2022-09-10T00:31:45.967Z,100336.03
2022-09-10T00:34:14.837Z,100331.66
2022-09-10T00:36:44.270Z,100327.41
2022-09-10T00:39:18.794Z,100325.00
2022-09-10T00:41:48.860Z,100330.50
2022-09-10T00:44:43.322Z,100342.13
2022-09-10T00:47:17.169Z,100360.59
2022-09-10T00:49:54.211Z,100372.84
2022-09-10T00:52:22.944Z,100393.88
2022-09-10T00:54:51.550Z,100415.72
2022-09-10T00:57:23.132Z,100406.25
2022-09-10T00:59:56.578Z,100408.69
2022-09-10T01:02:28.069Z,100402.41
2022-09-10T01:04:58.365Z,100417.66
2022-09-10T01:07:29.270Z,100408.91
2022-09-10T01:10:05.065Z,100408.72
2022-09-10T01:13:11.813Z,100417.84
2022-09-10T01:16:01.422Z,100432.91
2022-09-10T01:18:45.019Z,100453.38
2022-09-10T01:21:37.120Z,100455.41
2022-09-10T01:24:24.317Z,100467.91
2022-09-10T01:27:04.314Z,100470.78
2022-09-10T01:29:44.744Z,100474.66
2022-09-10T01:32:18.015Z,100459.69
2022-09-10T01:35:04.921Z,100430.03
2022-09-10T01:37:36.978Z,100449.38
2022-09-10T01:40:07.634Z,100441.16
2022-09-10T01:42:39.686Z,100420.41
2022-09-10T01:45:12.355Z,100405.50
2022-09-10T01:47:43.268Z,100428.75
2022-09-10T01:50:38.487Z,100430.00
2022-09-10T01:53:22.863Z,100410.47
2022-09-10T01:56:30.192Z,100379.75
2022-09-10T01:59:25.807Z,100366.34
2022-09-10T02:02:09.007Z,100352.13
2022-09-10T02:04:38.335Z,100327.75
2022-09-10T02:07:08.780Z,100309.38
2022-09-10T02:09:37.627Z,100296.25
2022-09-10T02:12:12.750Z,100303.28
2022-09-10T02:14:57.258Z,100307.19
2022-09-10T02:17:54.987Z,100308.38
2022-09-10T02:20:24.090Z,100312.41
2022-09-10T02:22:58.715Z,100315.06
2022-09-10T02:25:31.793Z,100302.00
2022-09-10T02:28:00.245Z,100302.72
2022-09-10T02:30:29.301Z,100293.13
2022-09-10T02:32:57.504Z,100292.31
2022-09-10T02:35:25.785Z,100300.13
2022-09-10T02:37:53.932Z,100289.94
2022-09-10T02:40:22.050Z,100287.72
2022-09-10T02:42:50.235Z,100296.28
2022-09-10T02:45:24.953Z,100294.47
2022-09-10T02:47:53.601Z,100302.63
2022-09-10T02:50:22.131Z,100297.25
2022-09-10T02:52:53.840Z,100302.94
2022-09-10T02:55:22.195Z,100300.88
2022-09-10T02:57:50.368Z,100308.81
2022-09-10T03:00:20.252Z,100313.44
2022-09-10T03:02:48.472Z,100309.19
2022-09-10T03:05:17.450Z,100309.03
2022-09-10T03:07:46.185Z,100314.22
2022-09-10T03:10:14.551Z,100315.25
2022-09-10T03:12:42.732Z,100316.56
2022-09-10T03:15:12.816Z,100324.19
2022-09-10T03:17:40.944Z,100326.34
2022-09-10T03:20:09.450Z,100328.16
2022-09-10T03:22:38.339Z,100328.50
2022-09-10T03:25:08.018Z,100335.28
2022-09-10T03:27:37.369Z,100335.16
2022-09-10T03:30:10.543Z,100336.81
2022-09-10T03:32:41.556Z,100344.59
2022-09-10T03:35:10.715Z,100346.94
2022-09-10T03:37:40.023Z,100346.44
2022-09-10T03:40:09.279Z,100348.94
2022-09-10T03:42:38.772Z,100345.63
2022-09-10T03:45:07.501Z,100359.00
2022-09-10T03:47:37.646Z,100356.88
2022-09-10T03:50:06.649Z,100364.84
2022-09-10T03:52:35.725Z,100369.94
2022-09-10T03:55:04.343Z,100369.94
2022-09-10T03:57:32.428Z,100370.44
2022-09-10T04:00:00.525Z,100373.72
2022-09-10T04:02:28.790Z,100370.41
2022-09-10T04:04:57.023Z,100381.47
2022-09-10T04:07:25.099Z,100389.16
2022-09-10T04:09:53.287Z,100389.16
2022-09-10T04:12:24.932Z,100397.06
2022-09-10T04:14:53.354Z,100393.94
2022-09-10T04:17:21.431Z,100396.09
2022-09-10T04:19:51.049Z,100394.75
2022-09-10T04:22:19.180Z,100395.56
2022-09-10T04:24:47.422Z,100409.75
2022-09-10T04:27:16.922Z,100401.00
2022-09-10T04:29:45.686Z,100402.50
2022-09-10T04:32:14.110Z,100407.94
2022-09-10T04:34:42.945Z,100401.69
2022-09-10T04:37:12.719Z,100417.66
2022-09-10T04:39:43.551Z,100416.66
2022-09-10T04:42:15.436Z,100410.56
2022-09-10T04:44:43.642Z,100414.34
2022-09-10T04:47:12.296Z,100409.03
2022-09-10T04:49:40.857Z,100403.75
2022-09-10T04:52:13.083Z,100406.06
2022-09-10T04:54:41.683Z,100410.69
2022-09-10T04:57:10.045Z,100410.53
2022-09-10T04:59:38.569Z,100426.31
2022-09-10T05:02:09.004Z,100422.88
2022-09-10T05:04:39.390Z,100428.50
2022-09-10T05:07:07.808Z,100423.41
2022-09-10T05:09:36.148Z,100420.47
2022-09-10T05:12:05.618Z,100421.94
2022-09-10T05:14:34.401Z,100426.88
2022-09-10T05:17:03.689Z,100423.41
2022-09-10T05:19:33.887Z,100418.81
2022-09-10T05:22:06.933Z,100427.22
2022-09-10T05:24:35.755Z,100434.47
2022-09-10T05:27:06.048Z,100435.31
2022-09-10T05:29:35.051Z,100444.53
2022-09-10T05:32:03.306Z,100441.09
2022-09-10T05:34:31.400Z,100433.84
2022-09-10T05:36:59.590Z,100440.28
2022-09-10T05:39:27.676Z,100441.94
2022-09-10T05:41:55.756Z,100456.28
2022-09-10T05:44:24.954Z,100452.97
2022-09-10T05:46:53.679Z,100462.19
2022-09-10T05:49:22.545Z,100462.91
2022-09-10T05:51:51.126Z,100468.31
2022-09-10T05:54:19.471Z,100470.50
2022-09-10T05:56:47.712Z,100468.53
2022-09-10T05:59:15.869Z,100487.81
2022-09-10T06:01:51.506Z,100484.00
2022-09-10T06:04:21.850Z,100493.91
2022-09-10T06:06:50.040Z,100498.50
2022-09-10T06:09:19.350Z,100504.94
2022-09-10T06:12:00.571Z,100509.03
2022-09-10T06:14:29.134Z,100511.50
2022-09-10T06:16:57.697Z,100507.19
2022-09-10T06:19:27.596Z,100510.28
2022-09-10T06:21:57.102Z,100506.44
2022-09-10T06:24:29.141Z,100507.38
2022-09-10T06:26:59.406Z,100513.06
2022-09-10T06:29:30.303Z,100513.69
2022-09-10T06:32:00.650Z,100512.78
2022-09-10T06:34:28.906Z,100504.06
2022-09-10T06:36:59.688Z,100502.03
2022-09-10T06:39:30.213Z,100508.50
2022-09-10T06:42:01.612Z,100493.78
2022-09-10T06:44:50.407Z,100506.94
2022-09-10T06:48:32.406Z,100499.53
2022-09-10T06:50:22.612Z,100491.69
2022-09-10T06:52:53.178Z,100489.31
2022-09-10T06:55:23.314Z,100491.75
2022-09-10T06:57:51.691Z,100487.47
2022-09-10T07:00:23.193Z,100487.47
2022-09-10T07:02:54.216Z,100489.91
2022-09-10T07:05:23.966Z,100484.59
2022-09-10T07:07:53.011Z,100484.22
2022-09-10T07:10:23.090Z,100482.97
2022-09-10T07:12:52.556Z,100475.63
2022-09-10T07:15:22.409Z,100483.19
2022-09-10T07:17:51.728Z,100485.03
2022-09-10T07:20:23.494Z,100479.50
2022-09-10T07:22:57.155Z,100483.81
2022-09-10T07:25:27.369Z,100480.13
2022-09-10T07:28:06.570Z,100477.78
2022-09-10T07:30:37.540Z,100474.53
2022-09-10T07:33:05.944Z,100473.56
2022-09-10T07:35:38.446Z,100473.53
2022-09-10T07:38:14.126Z,100479.19
2022-09-10T07:40:43.848Z,100465.50
2022-09-10T07:43:12.550Z,100466.16
2022-09-10T07:45:41.858Z,100472.38
2022-09-10T07:48:12.204Z,100466.47
2022-09-10T07:50:41.137Z,100461.88
2022-09-10T07:53:12.133Z,100474.59
2022-09-10T07:55:40.947Z,100477.91
2022-09-10T07:58:10.229Z,100474.22
2022-09-10T08:00:43.792Z,100482.81
2022-09-10T08:03:12.684Z,100478.19
2022-09-10T08:05:41.159Z,100479.69
2022-09-10T08:08:10.546Z,100485.53
2022-09-10T08:10:39.158Z,100488.06
2022-09-10T08:13:08.079Z,100485.50
2022-09-10T08:15:40.973Z,100487.06
2022-09-10T08:18:10.317Z,100484.00
2022-09-10T08:20:40.066Z,100497.34
2022-09-10T08:23:08.386Z,100495.44
2022-09-10T08:25:38.103Z,100499.66
2022-09-10T08:28:07.067Z,100491.06
2022-09-10T08:30:36.383Z,100496.94
2022-09-10T08:33:05.242Z,100498.84
2022-09-10T08:35:34.952Z,100501.84
2022-09-10T08:38:03.871Z,100500.13
2022-09-10T08:40:32.898Z,100505.69
2022-09-10T08:43:02.064Z,100502.22
2022-09-10T08:45:33.953Z,100501.16
2022-09-10T08:48:17.394Z,100503.84
2022-09-10T08:51:10.007Z,100505.38
2022-09-10T08:53:55.852Z,100506.03
2022-09-10T08:56:27.069Z,100502.28
2022-09-10T08:59:03.200Z,100510.56
2022-09-10T09:01:51.579Z,100510.44
2022-09-10T09:05:05.243Z,100510.28
2022-09-10T09:07:40.269Z,100503.66
2022-09-10T09:10:25.279Z,100511.09
2022-09-10T09:13:20.855Z,100507.56
2022-09-10T09:16:17.018Z,100510.84
2022-09-10T09:19:00.346Z,100511.31
2022-09-10T09:21:46.294Z,100510.00
2022-09-10T09:24:22.661Z,100512.22
2022-09-10T09:27:01.882Z,100519.25
2022-09-10T09:29:55.038Z,100506.06
2022-09-10T09:32:25.383Z,100506.69
2022-09-10T09:35:08.056Z,100500.66
2022-09-10T09:37:38.146Z,100501.94
2022-09-10T09:40:28.499Z,100501.22
2022-09-10T09:43:03.251Z,100492.41
2022-09-10T09:45:43.962Z,100491.66
2022-09-10T09:48:17.225Z,100494.44
2022-09-10T09:50:51.603Z,100486.72
2022-09-10T09:53:22.569Z,100480.00
2022-09-10T09:55:55.744Z,100493.34
2022-09-10T09:58:26.857Z,100489.72
2022-09-10T10:01:03.935Z,100488.16
2022-09-10T10:03:38.269Z,100482.38
2022-09-10T10:06:11.522Z,100483.19
2022-09-10T10:08:45.694Z,100484.03
2022-09-10T10:11:20.681Z,100482.38
2022-09-10T10:13:53.113Z,100478.78
2022-09-10T10:16:33.867Z,100473.75
2022-09-10T10:19:02.415Z,100470.81
2022-09-10T10:21:36.782Z,100468.59
2022-09-10T10:24:05.950Z,100474.06
2022-09-10T10:26:35.970Z,100468.94
2022-09-10T10:29:19.333Z,100467.63
2022-09-10T10:31:50.486Z,100464.50
2022-09-10T10:34:41.155Z,100464.16
2022-09-10T10:37:22.584Z,100460.06
2022-09-10T10:40:31.611Z,100462.50
2022-09-10T10:43:26.548Z,100449.56
2022-09-10T10:46:08.776Z,100449.22
2022-09-10T10:48:57.975Z,100436.59
2022-09-10T10:51:49.282Z,100437.28
2022-09-10T10:54:41.220Z,100433.41
2022-09-10T10:57:27.873Z,100427.31
2022-09-10T11:00:04.135Z,100421.63
2022-09-10T11:02:40.897Z,100425.25
2022-09-10T11:05:27.044Z,100415.91
2022-09-10T11:07:56.484Z,100423.66
2022-09-10T11:10:39.371Z,100418.94
2022-09-10T11:13:25.708Z,100426.88
2022-09-10T11:16:15.220Z,100421.38
2022-09-10T11:18:52.053Z,100433.25
2022-09-10T11:21:56.200Z,100422.97
2022-09-10T11:24:47.767Z,100421.97
2022-09-10T11:27:35.027Z,100422.78
2022-09-10T11:30:10.289Z,100415.00
2022-09-10T11:33:05.718Z,100415.38
2022-09-10T11:35:45.876Z,100408.94
2022-09-10T11:38:24.804Z,100406.13
2022-09-10T11:41:17.440Z,100399.97
2022-09-10T11:44:03.543Z,100394.78
2022-09-10T11:46:37.816Z,100396.91
2022-09-10T11:49:20.646Z,100398.09
2022-09-10T11:51:49.341Z,100392.59
2022-09-10T11:54:23.649Z,100391.44
2022-09-10T11:57:27.507Z,100383.13
2022-09-10T12:00:08.756Z,100387.00
2022-09-10T12:03:14.696Z,100381.53
2022-09-10T12:05:51.425Z,100379.91
2022-09-10T12:08:29.584Z,100377.03
2022-09-10T12:11:09.587Z,100371.16
2022-09-10T12:13:41.732Z,100376.22
2022-09-10T12:16:25.291Z,100364.66
2022-09-10T12:18:55.777Z,100359.19
2022-09-10T12:21:43.122Z,100355.53
2022-09-10T12:24:40.451Z,100363.03
2022-09-10T12:27:17.481Z,100354.84
2022-09-10T12:29:45.816Z,100356.75
2022-09-10T12:32:30.837Z,100362.22
2022-09-10T12:35:38.108Z,100356.69
2022-09-10T12:38:43.755Z,100354.06
2022-09-10T12:41:34.535Z,100350.88
2022-09-10T12:44:28.283Z,100340.25
2022-09-10T12:47:14.855Z,100338.94
2022-09-10T12:49:59.054Z,100329.19
2022-09-10T12:52:45.882Z,100332.50
2022-09-10T12:55:32.447Z,100329.09
2022-09-10T12:58:17.075Z,100322.06
2022-09-10T13:00:53.879Z,100336.63
2022-09-10T13:03:25.079Z,100327.94
2022-09-10T13:05:56.641Z,100323.84
2022-09-10T13:08:33.411Z,100314.75
2022-09-10T13:11:05.259Z,100316.41
2022-09-10T13:13:56.484Z,100314.34
2022-09-10T13:16:28.000Z,100316.63
2022-09-10T13:19:14.264Z,100313.28
2022-09-10T13:21:45.372Z,100310.88
2022-09-10T13:24:35.672Z,100306.69
2022-09-10T13:27:38.239Z,100297.88
2022-09-10T13:30:17.571Z,100297.91
2022-09-10T13:33:05.166Z,100298.19
2022-09-10T13:36:03.987Z,100296.53
2022-09-10T13:38:43.758Z,100293.00
2022-09-10T13:41:27.868Z,100284.91
2022-09-10T13:44:04.947Z,100280.91
2022-09-10T13:46:45.123Z,100285.47
2022-09-10T13:49:41.201Z,100276.03
2022-09-10T13:52:16.039Z,100271.41
2022-09-10T13:54:58.222Z,100268.72
2022-09-10T13:57:40.851Z,100261.13
2022-09-10T14:00:23.650Z,100264.97
2022-09-10T14:02:55.012Z,100260.34
2022-09-10T14:05:29.244Z,100264.38
2022-09-10T14:08:01.873Z,100272.50
2022-09-10T14:10:30.914Z,100253.53
2022-09-10T14:12:59.646Z,100259.38
2022-09-10T14:15:36.245Z,100264.22
2022-09-10T14:18:04.678Z,100260.47
2022-09-10T14:20:35.653Z,100255.22
2022-09-10T14:23:12.888Z,100247.34
2022-09-10T14:25:42.981Z,100246.72
2022-09-10T14:28:16.970Z,100249.41
2022-09-10T14:30:48.748Z,100240.63
2022-09-10T14:33:28.465Z,100240.78
2022-09-10T14:35:58.777Z,100243.13
2022-09-10T14:38:34.225Z,100232.16
2022-09-10T14:41:16.558Z,100228.03
2022-09-10T14:43:45.151Z,100222.13
2022-09-10T14:46:51.672Z,100223.28
2022-09-10T14:49:29.118Z,100225.91
2022-09-10T14:51:58.550Z,100224.25
2022-09-10T14:54:32.232Z,100211.09
2022-09-10T14:57:13.783Z,100223.78
2022-09-10T14:59:44.497Z,100221.34
2022-09-10T15:02:32.884Z,100222.19
2022-09-10T15:05:00.981Z,100221.53
2022-09-10T15:07:29.234Z,100220.38
2022-09-10T15:09:57.341Z,100217.81
2022-09-10T15:12:31.749Z,100224.22
2022-09-10T15:15:00.000Z,100222.19
2022-09-10T15:17:28.084Z,100225.81
2022-09-10T15:19:56.306Z,100221.91
2022-09-10T15:22:26.830Z,100222.06
2022-09-10T15:25:09.785Z,100231.75
2022-09-10T15:27:39.273Z,100222.09
2022-09-10T15:30:08.018Z,100219.78
2022-09-10T15:32:36.190Z,100221.66
2022-09-10T15:35:05.362Z,100226.78
2022-09-10T15:37:33.418Z,100223.88
2022-09-10T15:40:01.742Z,100224.47
2022-09-10T15:42:31.534Z,100221.69
2022-09-10T15:44:59.559Z,100218.69
2022-09-10T15:47:27.698Z,100217.97
2022-09-10T15:49:56.613Z,100225.22
2022-09-10T15:52:24.757Z,100229.28
2022-09-10T15:54:54.284Z,100228.25
2022-09-10T15:57:22.425Z,100228.81
2022-09-10T15:59:50.506Z,100229.75
2022-09-10T16:02:18.680Z,100233.59
2022-09-10T16:04:46.761Z,100235.25
2022-09-10T16:07:14.922Z,100233.75
2022-09-10T16:09:43.565Z,100229.06
2022-09-10T16:12:12.104Z,100237.09
2022-09-10T16:14:40.179Z,100237.25
2022-09-10T16:17:10.619Z,100237.59
2022-09-10T16:19:38.863Z,100236.88
2022-09-10T16:22:08.127Z,100235.72
2022-09-10T16:24:36.247Z,100235.25
2022-09-10T16:27:04.785Z,100234.75
2022-09-10T16:29:32.832Z,100243.94
2022-09-10T16:32:00.933Z,100238.47
2022-09-10T16:34:29.040Z,100243.69
2022-09-10T16:36:57.391Z,100239.50
2022-09-10T16:39:25.468Z,100244.59
2022-09-10T16:41:53.604Z,100244.25
2022-09-10T16:44:21.974Z,100239.31
2022-09-10T16:46:50.534Z,100241.28
2022-09-10T16:49:19.721Z,100240.53
2022-09-10T16:51:49.378Z,100241.22
2022-09-10T16:54:21.338Z,100238.19
2022-09-10T16:56:50.437Z,100240.94
2022-09-10T16:59:25.848Z,100232.00
2022-09-10T17:01:55.047Z,100234.16
2022-09-10T17:04:29.370Z,100234.81
2022-09-10T17:06:58.505Z,100235.72
2022-09-10T17:09:26.696Z,100233.50
2022-09-10T17:11:55.180Z,100236.69
2022-09-10T17:14:23.389Z,100236.63
2022-09-10T17:16:52.182Z,100238.16
2022-09-10T17:19:23.566Z,100241.78
2022-09-10T17:21:55.237Z,100243.78
2022-09-10T17:24:25.951Z,100244.94
2022-09-10T17:26:55.426Z,100244.47
2022-09-10T17:29:25.764Z,100242.91
2022-09-10T17:31:57.503Z,100238.47
2022-09-10T17:34:26.551Z,100245.72
2022-09-10T17:36:54.879Z,100239.84
2022-09-10T17:39:23.067Z,100249.94
2022-09-10T17:41:56.369Z,100252.09
2022-09-10T17:44:25.034Z,100253.75
2022-09-10T17:46:53.625Z,100249.47
2022-09-10T17:49:21.818Z,100254.41
2022-09-10T17:51:53.219Z,100254.63
2022-09-10T17:54:21.491Z,100251.16
2022-09-10T17:56:49.626Z,100256.97
2022-09-10T17:59:17.860Z,100266.66
2022-09-10T18:01:45.989Z,100260.13
2022-09-10T18:04:14.458Z,100268.53
2022-09-10T18:06:43.730Z,100272.66
2022-09-10T18:09:12.334Z,100275.91
2022-09-10T18:11:41.723Z,100275.91
2022-09-10T18:14:18.529Z,100284.53
2022-09-10T18:16:46.772Z,100293.31
2022-09-10T18:19:16.722Z,100287.16
2022-09-10T18:21:47.667Z,100290.63
2022-09-10T18:24:22.530Z,100289.19
2022-09-10T18:26:53.881Z,100293.50
2022-09-10T18:29:25.394Z,100304.94
2022-09-10T18:31:57.452Z,100301.63
2022-09-10T18:34:27.876Z,100308.56
2022-09-10T18:36:58.701Z,100314.66
2022-09-10T18:39:29.088Z,100305.88
2022-09-10T18:41:58.935Z,100315.47
2022-09-10T18:44:29.783Z,100320.16
2022-09-10T18:46:57.932Z,100317.28
2022-09-10T18:49:26.820Z,100324.59
2022-09-10T18:51:57.343Z,100326.25
2022-09-10T18:54:30.188Z,100330.31
2022-09-10T18:56:58.636Z,100331.91
2022-09-10T18:59:26.955Z,100331.03
2022-09-10T19:01:56.035Z,100327.38
2022-09-10T19:04:27.873Z,100344.16
2022-09-10T19:06:57.143Z,100352.94
2022-09-10T19:09:29.505Z,100351.28
2022-09-10T19:12:00.269Z,100349.25
2022-09-10T19:14:30.685Z,100349.91
2022-09-10T19:17:00.813Z,100350.06
2022-09-10T19:19:31.784Z,100357.44
2022-09-10T19:22:03.609Z,100359.25
2022-09-10T19:24:53.499Z,100357.22
2022-09-10T19:27:21.234Z,100362.09
2022-09-10T19:29:53.359Z,100362.09
2022-09-10T19:32:21.491Z,100353.28
2022-09-10T19:34:50.713Z,100355.31
2022-09-10T19:37:19.817Z,100361.00
2022-09-10T19:39:48.144Z,100367.16
2022-09-10T19:42:17.237Z,100360.44
2022-09-10T19:44:45.379Z,100366.84
2022-09-10T19:47:13.536Z,100352.97
2022-09-10T19:49:41.663Z,100356.50
2022-09-10T19:52:11.035Z,100361.88
2022-09-10T19:54:39.253Z,100361.16
2022-09-10T19:57:07.375Z,100362.22
2022-09-10T19:59:35.615Z,100369.38
2022-09-10T20:02:03.783Z,100364.09
2022-09-10T20:04:33.088Z,100366.75
2022-09-10T20:07:01.376Z,100368.59
2022-09-10T20:09:29.464Z,100369.25
2022-09-10T20:11:57.611Z,100370.06
2022-09-10T20:14:25.717Z,100368.00
2022-09-10T20:16:54.700Z,100373.53
2022-09-10T20:19:22.861Z,100368.84
2022-09-10T20:21:51.766Z,100380.31
2022-09-10T20:24:19.924Z,100369.06
2022-09-10T20:26:49.013Z,100368.06
2022-09-10T20:29:19.297Z,100373.59
2022-09-10T20:31:48.899Z,100368.50
2022-09-10T20:34:20.250Z,100363.38
2022-09-10T20:36:51.319Z,100359.66
2022-09-10T20:39:21.658Z,100360.50
2022-09-10T20:41:49.763Z,100364.19
2022-09-10T20:44:18.357Z,100360.22
2022-09-10T20:46:46.565Z,100358.22
2022-09-10T20:49:16.345Z,100358.81
2022-09-10T20:51:45.396Z,100356.34
2022-09-10T20:54:18.635Z,100361.03
2022-09-10T20:56:47.052Z,100360.44
2022-09-10T20:59:17.811Z,100362.28
2022-09-10T21:01:47.022Z,100367.19
2022-09-10T21:04:15.521Z,100377.22
2022-09-10T21:06:43.677Z,100365.13
2022-09-10T21:09:12.647Z,100373.16
2022-09-10T21:11:41.172Z,100362.91
2022-09-10T21:14:09.484Z,100362.50
2022-09-10T21:16:39.995Z,100378.06
2022-09-10T21:19:11.437Z,100369.84
2022-09-10T21:21:40.607Z,100372.50
2022-09-10T21:24:17.392Z,100390.09
2022-09-10T21:26:45.925Z,100388.59
2022-09-10T21:29:17.050Z,100394.94
2022-09-10T21:31:45.901Z,100401.44
2022-09-10T21:34:17.453Z,100397.56
2022-09-10T21:36:45.632Z,100400.78
2022-09-10T21:39:15.946Z,100403.13
2022-09-10T21:41:48.921Z,100405.31
2022-09-10T21:44:22.319Z,100397.13
2022-09-10T21:46:50.900Z,100403.03
2022-09-10T21:49:20.396Z,100407.38
2022-09-10T21:51:48.850Z,100407.78
2022-09-10T21:54:20.761Z,100407.53
2022-09-10T21:56:50.831Z,100401.41
2022-09-10T21:59:20.445Z,100408.59
2022-09-10T22:01:51.379Z,100407.38
2022-09-10T22:04:22.874Z,100410.41
2022-09-10T22:06:54.347Z,100410.59
2022-09-10T22:09:22.615Z,100410.56
2022-09-10T22:11:54.120Z,100418.09
2022-09-10T22:14:24.286Z,100420.13
2022-09-10T22:16:53.343Z,100425.00
2022-09-10T22:19:24.719Z,100419.91
2022-09-10T22:21:54.370Z,100420.56
2022-09-10T22:24:22.725Z,100424.03
2022-09-10T22:26:51.148Z,100425.28
2022-09-10T22:29:20.364Z,100427.50
2022-09-10T22:31:50.139Z,100432.00
2022-09-10T22:34:19.674Z,100432.38
2022-09-10T22:36:49.535Z,100426.03
2022-09-10T22:39:22.035Z,100440.53
2022-09-10T22:41:51.360Z,100444.63
2022-09-10T22:44:20.127Z,100445.88
2022-09-10T22:46:48.541Z,100443.81
2022-09-10T22:49:17.059Z,100449.81
2022-09-10T22:51:45.846Z,100452.13
2022-09-10T22:54:13.993Z,100452.81
2022-09-10T22:56:42.123Z,100444.84
2022-09-10T22:59:13.974Z,100444.75
2022-09-10T23:01:44.359Z,100439.22
2022-09-10T23:04:12.958Z,100440.09
2022-09-10T23:06:42.639Z,100438.88
2022-09-10T23:09:17.888Z,100435.59
2022-09-10T23:11:46.876Z,100433.16
2022-09-10T23:14:19.164Z,100435.81
2022-09-10T23:16:49.557Z,100440.47
2022-09-10T23:19:20.963Z,100439.03
2022-09-10T23:21:55.073Z,100440.91
2022-09-10T23:24:26.527Z,100437.25
2022-09-10T23:26:55.326Z,100437.69
2022-09-10T23:29:23.921Z,100431.34
2022-09-10T23:31:55.255Z,100433.00
2022-09-10T23:34:23.603Z,100432.16
2022-09-10T23:36:53.231Z,100430.06
2022-09-10T23:39:23.488Z,100432.50
2022-09-10T23:41:54.541Z,100430.91
2022-09-10T23:44:23.043Z,100429.03
2022-09-10T23:46:51.222Z,100437.78
2022-09-10T23:49:19.428Z,100436.88
2022-09-10T23:51:48.079Z,100430.16
2022-09-10T23:54:17.771Z,100433.84
2022-09-10T23:56:46.094Z,100435.25
2022-09-10T23:59:15.426Z,100427.25
